Estación Meteorológica Peña el Pijo (Robertgarden) [ 12/11/19 23:06:00 CET ]

Fecha Hora Presion(HPa) Temp (°C) Humedad % Rocio (°C) Viento ( m/s) Direccion Lluvia 1Hora(mm) Lluvia 24H(mm) LLuvia Total(mm)
2019-Sep-27 01:01:53 1013.500 11.8 79 8.3         490.25
2019-Sep-27 02:01:45 1013.300 10.9 80 7.6         490.25
2019-Sep-27 03:03:17 1013.100 10.3 82 7.3         490.25
2019-Sep-27 04:01:41 1012.900 9.8 82 6.8         490.25
2019-Sep-27 05:01:58 1012.700 9.6 83 6.8         490.25
2019-Sep-27 06:01:35 1012.800 9.1 84 6.5         490.25
2019-Sep-27 07:01:44 1012.800 8.3 85 5.9         490.25
2019-Sep-27 08:01:47 1013.200 8.5 85 6.1         490.25
2019-Sep-27 09:01:46 1013.200 8.9 86 6.7         490.25
2019-Sep-27 10:01:42 1013.400 15.9 76 11.7         490.25
2019-Sep-27 11:01:49 1013.200 21.4 60 13.4         490.25
2019-Sep-27 12:01:48 1013.000 25.4 43 11.9         490.25
2019-Sep-27 13:01:45 1012.300 29.3 32 10.8         490.25
2019-Sep-27 14:01:48 1012.000 31.6 26 9.5         490.25
2019-Sep-27 15:01:50 1011.400 31.4 27 10.0         490.25
2019-Sep-27 16:02:01 1011.300 32.2 25 9.5         490.25
2019-Sep-27 17:02:05 1011.200 31.3 25 8.7         490.25
2019-Sep-27 18:01:44 1011.200 30.1 22 5.9         490.25
2019-Sep-27 19:01:48 1011.500 27.3 24 4.8         490.25
2019-Sep-27 20:01:46 1011.600 20.4 43 7.3         490.25
2019-Sep-27 21:01:48 1012.600 15.6 54 6.3         490.25
2019-Sep-27 22:01:43 1013.200 13.4 61 6.0         490.25
2019-Sep-27 23:01:46 1013.700 12.6 63 5.7         490.25

Temperatura Máxima:32°    Temperatura Mínima:
Presión Máxima:1013.700 Hpa    Presión Mínima:1011.200 Hpa


Volver